Time;durP1;ratioP1;P1;durP2;ratioP2;P2;SDS_P1;SDS_P2;PMS_P1;PMS_P2;Temp;Humidity;BMP_temperature;BMP_pressure;BME280_temperature;BME280_humidity;BME280_pressure;Samples;Min_cycle;Max_cycle;Signal;HPM_P1;HPM_P2
2023/06/20 00:00:40;;;;;;;15.30;13.70;;;22.00;78.80;;;;;;5036597;28;20029;-76
2023/06/20 00:03:06;;;;;;;15.77;14.13;;;21.90;78.60;;;;;;5042980;28;20492;-77
2023/06/20 00:05:31;;;;;;;15.52;13.75;;;21.60;77.90;;;;;;5038582;28;20329;-80
2023/06/20 00:07:57;;;;;;;17.52;14.57;;;21.60;78.40;;;;;;5042845;28;20025;-80
2023/06/20 00:10:23;;;;;;;16.50;14.10;;;21.60;78.60;;;;;;5035346;28;20048;-76
2023/06/20 00:12:49;;;;;;;18.23;15.55;;;21.70;78.50;;;;;;5035943;28;20533;-76
2023/06/20 00:15:15;;;;;;;15.65;13.57;;;21.70;79.00;;;;;;5041896;28;20131;-75
2023/06/20 00:17:40;;;;;;;15.50;13.10;;;21.70;78.20;;;;;;5036461;28;20452;-77
2023/06/20 00:20:08;;;;;;;15.00;13.35;;;21.70;77.70;;;;;;5038382;28;20116;-77
2023/06/20 00:22:34;;;;;;;16.35;13.18;;;21.80;77.90;;;;;;5038023;28;20025;-76
2023/06/20 00:25:04;;;;;;;13.43;11.80;;;21.80;77.30;;;;;;5039869;28;20590;-78
2023/06/20 00:27:30;;;;;;;15.55;12.50;;;21.80;76.80;;;;;;5034364;28;20543;-77
2023/06/20 00:29:55;;;;;;;13.98;11.93;;;21.90;77.00;;;;;;5040322;28;20045;-77
2023/06/20 00:32:21;;;;;;;14.38;12.00;;;21.90;76.80;;;;;;5037962;28;20160;-77
2023/06/20 00:34:47;;;;;;;15.13;11.82;;;22.00;76.80;;;;;;5041085;28;20029;-76
2023/06/20 00:37:12;;;;;;;14.73;12.05;;;22.10;76.90;;;;;;5035207;28;20117;-79
2023/06/20 00:39:38;;;;;;;14.98;11.93;;;22.00;76.60;;;;;;5037462;28;20025;-76
2023/06/20 00:42:05;;;;;;;13.95;12.48;;;22.10;76.30;;;;;;5045719;28;20036;-78
2023/06/20 00:44:30;;;;;;;17.42;12.82;;;22.00;75.90;;;;;;5035986;28;20022;-76
2023/06/20 00:46:57;;;;;;;14.40;12.45;;;22.10;75.70;;;;;;5045777;28;20036;-80
2023/06/20 00:49:22;;;;;;;16.35;14.43;;;22.10;75.90;;;;;;5034297;28;20032;-78
2023/06/20 00:51:49;;;;;;;14.55;13.05;;;22.00;75.70;;;;;;5042313;28;20444;-75
2023/06/20 00:54:15;;;;;;;14.20;12.60;;;22.00;76.00;;;;;;5037676;28;20485;-76
2023/06/20 00:56:42;;;;;;;14.00;12.50;;;22.00;76.10;;;;;;5044460;28;20222;-78
2023/06/20 00:59:08;;;;;;;16.20;14.35;;;22.00;75.80;;;;;;5039387;28;20036;-80
2023/06/20 01:01:34;;;;;;;14.30;12.80;;;22.00;75.70;;;;;;5038226;28;20033;-77
2023/06/20 01:04:00;;;;;;;16.05;14.27;;;22.00;75.90;;;;;;5041997;28;20024;-77
2023/06/20 01:06:58;;;;;;;15.00;12.55;;;22.00;75.90;;;;;;5037311;28;20060;-77
2023/06/20 01:09:34;;;;;;;15.05;12.85;;;22.10;76.00;;;;;;5040242;28;20432;-77
2023/06/20 01:11:59;;;;;;;15.20;12.98;;;22.00;75.70;;;;;;5045829;28;20033;-75
2023/06/20 01:14:42;;;;;;;15.43;13.23;;;22.10;75.70;;;;;;5043344;28;20052;-76
2023/06/20 01:17:17;;;;;;;17.15;15.40;;;22.00;75.70;;;;;;5042641;28;20033;-76
2023/06/20 01:20:12;;;;;;;16.50;14.38;;;21.80;76.00;;;;;;5038311;28;20435;-76
2023/06/20 01:22:49;;;;;;;;;;;21.80;76.60;;;;;;5040956;28;20041;-76
2023/06/20 01:25:35;;;;;;;19.92;16.20;;;21.80;76.90;;;;;;5044993;28;19916;-76
2023/06/20 01:28:06;;;;;;;18.17;15.60;;;21.60;76.70;;;;;;5043741;28;20473;-76
2023/06/20 01:30:54;;;;;;;17.05;15.25;;;21.60;77.10;;;;;;5039231;28;20522;-78
2023/06/20 01:33:27;;;;;;;17.60;15.52;;;21.70;77.20;;;;;;5043074;28;20503;-76
2023/06/20 01:35:55;;;;;;;18.25;15.65;;;21.60;76.80;;;;;;5037823;28;20041;-76
2023/06/20 01:38:25;;;;;;;18.98;16.42;;;21.60;76.70;;;;;;5046709;28;20432;-76
2023/06/20 01:40:51;;;;;;;16.63;14.45;;;21.50;77.00;;;;;;5039759;28;20040;-77
2023/06/20 01:43:19;;;;;;;17.10;15.20;;;21.40;77.50;;;;;;5044735;28;20851;-77
2023/06/20 01:45:46;;;;;;;15.57;13.30;;;21.40;77.80;;;;;;5040929;28;20127;-78
2023/06/20 01:48:13;;;;;;;15.38;13.77;;;21.50;77.90;;;;;;5036801;28;20096;-77
2023/06/20 01:50:39;;;;;;;17.65;13.40;;;21.50;77.60;;;;;;5043093;28;20072;-77
2023/06/20 01:53:07;;;;;;;15.35;12.73;;;21.50;77.40;;;;;;5041365;28;20048;-77
2023/06/20 01:55:34;;;;;;;15.70;13.18;;;21.50;77.60;;;;;;5044393;28;20051;-77
2023/06/20 01:58:01;;;;;;;17.02;14.88;;;21.50;77.80;;;;;;5038387;28;20108;-79
2023/06/20 02:00:28;;;;;;;17.13;15.27;;;21.60;77.70;;;;;;5043443;28;20032;-79
2023/06/20 02:02:57;;;;;;;16.55;13.75;;;21.50;77.60;;;;;;5042120;28;20033;-76
2023/06/20 02:05:24;;;;;;;17.00;14.65;;;21.50;77.60;;;;;;5034071;28;20055;-79
2023/06/20 02:07:53;;;;;;;17.35;15.50;;;21.50;77.80;;;;;;5037584;28;20048;-80
2023/06/20 02:10:21;;;;;;;17.75;15.85;;;21.50;77.80;;;;;;5038796;28;20036;-77
2023/06/20 02:12:50;;;;;;;19.33;15.05;;;21.50;77.90;;;;;;5044861;28;20071;-77
2023/06/20 02:15:17;;;;;;;16.23;14.48;;;21.50;77.90;;;;;;5040287;28;20143;-77
2023/06/20 02:17:45;;;;;;;18.30;16.40;;;21.40;77.80;;;;;;5036975;28;20041;-76
2023/06/20 02:20:11;;;;;;;18.77;16.80;;;21.30;77.70;;;;;;5036353;28;20025;-79
2023/06/20 02:22:41;;;;;;;17.52;15.27;;;21.10;77.50;;;;;;5034015;28;20043;-79
2023/06/20 02:25:10;;;;;;;17.58;15.48;;;21.00;78.10;;;;;;5036783;28;20029;-76
2023/06/20 02:27:39;;;;;;;18.83;16.83;;;20.90;78.40;;;;;;5031823;28;20045;-76
2023/06/20 02:30:09;;;;;;;19.13;17.10;;;20.90;78.50;;;;;;5032876;28;20033;-79
2023/06/20 02:32:36;;;;;;;18.77;15.55;;;20.80;78.40;;;;;;5037730;28;20061;-76
2023/06/20 02:35:05;;;;;;;19.75;17.67;;;20.80;78.60;;;;;;5021682;28;20331;-75
2023/06/20 02:37:33;;;;;;;18.17;16.27;;;20.80;78.70;;;;;;5017559;28;20040;-76
2023/06/20 02:39:59;;;;;;;20.15;17.02;;;20.80;78.90;;;;;;5029162;28;20034;-78
2023/06/20 02:42:25;;;;;;;18.77;16.85;;;20.80;79.30;;;;;;5024811;28;20379;-78
2023/06/20 02:44:50;;;;;;;18.52;16.55;;;20.80;79.30;;;;;;5025335;28;20029;-78
2023/06/20 02:47:35;;;;;;;23.55;17.55;;;20.80;79.30;;;;;;5023857;28;20375;-79
2023/06/20 02:50:29;;;;;;;19.08;16.85;;;20.80;79.50;;;;;;5025138;28;20048;-75
2023/06/20 02:53:21;;;;;;;18.27;16.38;;;20.90;79.60;;;;;;5025042;28;20063;-79
2023/06/20 02:56:00;;;;;;;20.42;17.65;;;20.90;79.60;;;;;;5027609;28;20033;-79
2023/06/20 02:58:29;;;;;;;19.60;16.80;;;20.90;79.50;;;;;;5013297;28;20402;-77
2023/06/20 03:00:57;;;;;;;19.92;17.17;;;20.90;79.40;;;;;;5030315;28;20124;-79
2023/06/20 03:03:26;;;;;;;21.20;18.73;;;20.90;79.60;;;;;;5042356;28;20131;-78
2023/06/20 03:05:58;;;;;;;19.75;17.52;;;20.80;79.60;;;;;;5046820;28;20044;-76
2023/06/20 03:08:26;;;;;;;20.63;18.42;;;20.80;79.70;;;;;;5051604;28;20100;-81
2023/06/20 03:10:54;;;;;;;20.13;18.02;;;20.80;79.80;;;;;;5042347;28;20032;-78
2023/06/20 03:13:20;;;;;;;21.30;19.02;;;20.70;79.80;;;;;;5032591;28;20032;-78
2023/06/20 03:15:49;;;;;;;22.83;19.00;;;20.70;79.60;;;;;;5042832;28;20108;-76
2023/06/20 03:18:17;;;;;;;20.27;18.13;;;20.60;79.70;;;;;;5042361;28;20029;-79
2023/06/20 03:20:43;;;;;;;20.52;18.33;;;20.60;79.80;;;;;;5049824;28;20033;-79
2023/06/20 03:23:09;;;;;;;20.95;18.50;;;20.60;79.80;;;;;;5043066;28;20033;-77
2023/06/20 03:25:35;;;;;;;21.52;18.67;;;20.60;79.80;;;;;;5038758;28;20037;-75
2023/06/20 03:28:01;;;;;;;19.40;17.30;;;20.60;79.70;;;;;;5042540;28;20775;-77
2023/06/20 03:30:26;;;;;;;19.88;17.65;;;20.60;79.60;;;;;;5043632;28;20047;-76
2023/06/20 03:32:52;;;;;;;22.60;19.02;;;20.50;79.70;;;;;;5044310;28;20167;-77
2023/06/20 03:35:18;;;;;;;19.20;17.10;;;20.50;79.90;;;;;;5044756;28;20033;-77
2023/06/20 03:37:43;;;;;;;20.35;18.23;;;20.50;79.90;;;;;;5039169;28;20203;-75
2023/06/20 03:40:09;;;;;;;20.70;17.38;;;20.50;79.90;;;;;;5046139;28;20103;-78
2023/06/20 03:42:35;;;;;;;19.63;17.63;;;20.50;79.80;;;;;;5050314;28;20037;-78
2023/06/20 03:45:01;;;;;;;19.25;16.90;;;20.50;79.70;;;;;;5047810;28;20057;-77
2023/06/20 03:47:26;;;;;;;19.75;17.67;;;20.50;79.60;;;;;;5048548;28;20041;-76
2023/06/20 03:49:52;;;;;;;19.48;17.38;;;20.50;79.60;;;;;;5049483;28;20480;-76
2023/06/20 03:52:18;;;;;;;18.02;16.13;;;20.50;79.60;;;;;;5046001;28;20460;-74
2023/06/20 03:54:43;;;;;;;20.13;17.67;;;20.50;79.70;;;;;;5043705;28;20487;-78
2023/06/20 03:57:09;;;;;;;22.85;19.17;;;20.60;79.60;;;;;;5042960;28;20104;-78
2023/06/20 03:59:35;;;;;;;20.70;17.13;;;20.60;79.40;;;;;;5055203;28;20442;-75
2023/06/20 04:02:00;;;;;;;20.40;18.10;;;20.60;79.50;;;;;;5039669;28;20768;-76
2023/06/20 04:04:26;;;;;;;18.95;16.90;;;20.60;79.30;;;;;;5050775;28;20040;-76
2023/06/20 04:06:51;;;;;;;20.38;16.60;;;20.70;79.20;;;;;;5045260;28;20041;-76
2023/06/20 04:09:18;;;;;;;19.80;16.73;;;20.80;78.90;;;;;;5051149;28;20045;-77
2023/06/20 04:11:44;;;;;;;17.95;15.63;;;20.80;78.60;;;;;;5048506;28;20481;-75
2023/06/20 04:14:10;;;;;;;17.77;15.10;;;21.00;78.30;;;;;;5044114;28;20049;-79
2023/06/20 04:16:36;;;;;;;19.50;15.90;;;21.00;78.00;;;;;;5044016;28;20552;-78
2023/06/20 04:19:02;;;;;;;18.35;16.45;;;21.10;77.60;;;;;;5045085;28;20032;-77
2023/06/20 04:21:27;;;;;;;20.48;18.05;;;21.20;77.30;;;;;;5044821;28;20036;-76
2023/06/20 04:23:53;;;;;;;21.27;17.85;;;21.30;77.30;;;;;;5050868;28;20124;-77
2023/06/20 04:26:19;;;;;;;18.00;15.27;;;21.30;76.80;;;;;;5049228;28;20112;-75
2023/06/20 04:28:45;;;;;;;19.13;16.92;;;21.40;77.10;;;;;;5045383;28;20017;-77
2023/06/20 04:31:11;;;;;;;19.77;16.08;;;21.50;77.00;;;;;;5044832;28;20033;-76
2023/06/20 04:33:43;;;;;;;17.60;15.45;;;21.50;76.60;;;;;;5050335;28;20449;-75
2023/06/20 04:36:12;;;;;;;19.35;15.50;;;21.60;76.30;;;;;;5049846;28;20036;-75
2023/06/20 04:38:44;;;;;;;16.13;14.40;;;21.70;75.80;;;;;;5051195;28;20377;-79
2023/06/20 04:41:10;;;;;;;16.92;14.52;;;21.80;75.50;;;;;;5050064;28;20102;-76
2023/06/20 04:43:36;;;;;;;17.35;15.23;;;21.90;75.40;;;;;;5050140;28;20037;-73
2023/06/20 04:46:03;;;;;;;19.27;15.95;;;21.90;75.00;;;;;;5045132;28;20037;-75
2023/06/20 04:48:29;;;;;;;18.58;15.88;;;22.00;75.20;;;;;;5043854;28;20188;-77
2023/06/20 04:50:56;;;;;;;20.15;15.50;;;22.00;75.10;;;;;;5049056;28;20033;-76
2023/06/20 04:53:22;;;;;;;19.38;15.57;;;22.10;75.00;;;;;;5052095;28;20031;-75
2023/06/20 04:55:48;;;;;;;16.92;14.00;;;22.00;74.70;;;;;;5046375;28;20025;-77
2023/06/20 04:58:15;;;;;;;19.75;14.95;;;22.00;74.90;;;;;;5050158;28;20089;-77
2023/06/20 05:00:41;;;;;;;20.05;14.15;;;22.10;74.90;;;;;;5052796;28;20029;-76
2023/06/20 05:03:06;;;;;;;19.35;13.95;;;22.10;74.70;;;;;;5048091;28;20086;-77
2023/06/20 05:05:32;;;;;;;18.63;13.43;;;22.10;75.00;;;;;;5045468;28;20535;-75
2023/06/20 05:07:59;;;;;;;19.52;13.95;;;22.10;74.80;;;;;;5036670;28;20124;-76
2023/06/20 05:10:25;;;;;;;17.15;13.38;;;22.30;74.60;;;;;;5050855;28;20435;-76
2023/06/20 05:12:50;;;;;;;17.75;14.32;;;22.60;74.30;;;;;;5045533;28;20478;-80
2023/06/20 05:15:23;;;;;;;17.23;12.43;;;23.00;73.50;;;;;;5051085;28;20045;-78
2023/06/20 05:17:49;;;;;;;18.30;12.80;;;23.90;71.00;;;;;;5043766;28;20041;-76
2023/06/20 05:20:15;;;;;;;15.40;12.60;;;24.70;67.80;;;;;;5050071;28;20033;-78
2023/06/20 05:22:41;;;;;;;14.82;12.18;;;24.80;67.10;;;;;;5046186;28;20485;-76
2023/06/20 05:25:07;;;;;;;14.07;11.27;;;25.00;67.30;;;;;;5044711;28;20090;-76
2023/06/20 05:27:32;;;;;;;14.98;12.45;;;25.60;65.00;;;;;;5047863;28;20040;-79
2023/06/20 05:29:58;;;;;;;14.80;12.30;;;26.00;63.10;;;;;;5045250;28;20037;-76
2023/06/20 05:32:23;;;;;;;15.07;11.13;;;26.00;62.60;;;;;;5036696;28;20060;-76
2023/06/20 05:34:49;;;;;;;12.20;10.05;;;26.00;63.10;;;;;;5046698;28;20033;-80
2023/06/20 05:37:16;;;;;;;15.82;11.23;;;26.70;62.00;;;;;;5048143;28;20049;-79
2023/06/20 05:39:41;;;;;;;12.75;9.95;;;27.00;59.70;;;;;;5053153;28;20580;-78
2023/06/20 05:42:07;;;;;;;12.23;9.73;;;26.60;61.30;;;;;;5043138;28;20060;-80
2023/06/20 05:44:33;;;;;;;12.68;10.45;;;26.80;61.30;;;;;;5044356;28;20543;-83
2023/06/20 05:46:58;;;;;;;12.55;10.30;;;26.90;60.00;;;;;;5051655;28;20398;-78
2023/06/20 05:49:24;;;;;;;13.43;9.80;;;26.40;61.50;;;;;;5051453;28;20036;-78
2023/06/20 05:51:50;;;;;;;11.20;9.25;;;26.80;61.30;;;;;;5050096;28;20131;-81
2023/06/20 05:54:15;;;;;;;10.88;9.50;;;26.90;60.90;;;;;;5039110;28;20458;-80
2023/06/20 05:56:41;;;;;;;12.13;9.48;;;26.60;61.20;;;;;;5042567;28;20037;-84
2023/06/20 05:59:07;;;;;;;11.68;9.18;;;26.20;62.60;;;;;;5046642;28;20033;-78
2023/06/20 06:01:32;;;;;;;11.35;9.30;;;25.50;64.70;;;;;;5039507;28;20046;-79
2023/06/20 06:03:58;;;;;;;12.75;9.65;;;25.10;66.30;;;;;;5053284;28;20523;-81
2023/06/20 06:06:26;;;;;;;13.07;9.30;;;25.00;67.20;;;;;;5044666;28;20026;-80
2023/06/20 06:08:52;;;;;;;11.85;9.18;;;25.00;67.40;;;;;;5021247;28;20034;-79
2023/06/20 06:11:18;;;;;;;11.10;9.40;;;24.90;68.00;;;;;;5029001;28;20033;-78
2023/06/20 06:13:43;;;;;;;12.30;9.45;;;24.80;68.20;;;;;;5045711;28;20128;-84
2023/06/20 06:16:09;;;;;;;13.60;9.27;;;24.70;68.50;;;;;;5038267;28;20470;-83
2023/06/20 06:18:34;;;;;;;12.90;9.80;;;24.70;68.80;;;;;;5030332;28;20478;-82
2023/06/20 06:21:00;;;;;;;11.13;9.18;;;24.50;69.80;;;;;;5023487;28;20029;-74
2023/06/20 06:23:27;;;;;;;13.57;10.00;;;24.50;69.90;;;;;;5030899;28;20021;-74
2023/06/20 06:25:52;;;;;;;11.07;8.70;;;24.40;70.10;;;;;;5018371;28;20079;-74
2023/06/20 06:28:18;;;;;;;12.13;9.70;;;24.50;70.60;;;;;;5026159;28;20025;-74
2023/06/20 06:30:44;;;;;;;12.38;9.38;;;24.60;70.30;;;;;;5027541;28;20041;-74
2023/06/20 06:33:11;;;;;;;11.82;9.45;;;24.50;70.40;;;;;;5018518;28;20042;-74
2023/06/20 06:35:37;;;;;;;13.65;10.10;;;24.50;70.50;;;;;;5016272;28;20037;-75
2023/06/20 06:38:04;;;;;;;11.00;9.65;;;24.70;70.20;;;;;;5018101;28;20045;-75
2023/06/20 06:40:30;;;;;;;13.45;9.68;;;24.70;70.50;;;;;;5033323;28;20116;-74
2023/06/20 06:42:56;;;;;;;12.00;10.27;;;24.80;70.30;;;;;;5028180;28;20121;-73
2023/06/20 06:45:21;;;;;;;11.93;9.88;;;25.00;69.80;;;;;;5028467;28;20026;-74
2023/06/20 06:47:47;;;;;;;12.45;10.02;;;25.00;69.30;;;;;;5021669;28;20128;-74
2023/06/20 06:50:13;;;;;;;11.75;10.00;;;25.10;69.40;;;;;;5030687;28;20092;-73
2023/06/20 06:52:39;;;;;;;11.45;9.27;;;25.10;69.80;;;;;;5016419;28;20095;-73
2023/06/20 06:55:05;;;;;;;11.15;8.73;;;25.20;69.10;;;;;;5018791;28;20030;-74
2023/06/20 06:57:31;;;;;;;12.18;10.00;;;25.40;68.90;;;;;;5023520;28;20045;-74
2023/06/20 06:59:57;;;;;;;11.38;9.25;;;25.30;68.70;;;;;;5021631;28;20462;-73
2023/06/20 07:02:22;;;;;;;10.65;8.07;;;25.50;68.30;;;;;;5025698;28;20469;-73
2023/06/20 07:04:48;;;;;;;12.23;9.13;;;25.60;68.10;;;;;;5030246;28;20029;-73
2023/06/20 07:07:14;;;;;;;13.60;10.10;;;25.50;67.60;;;;;;5021525;28;20112;-73
2023/06/20 07:09:39;;;;;;;13.90;10.18;;;25.30;68.00;;;;;;5038429;28;20116;-74
2023/06/20 07:12:06;;;;;;;12.20;9.43;;;25.40;67.40;;;;;;5025351;28;20458;-74
2023/06/20 07:14:33;;;;;;;15.43;9.70;;;25.40;67.80;;;;;;5023697;28;20054;-74
2023/06/20 07:16:59;;;;;;;13.52;9.95;;;25.70;67.20;;;;;;5024080;28;20066;-75
2023/06/20 07:19:25;;;;;;;11.70;9.07;;;25.80;66.10;;;;;;5023588;28;20061;-74
2023/06/20 07:21:50;;;;;;;11.52;9.27;;;25.80;66.80;;;;;;5021495;28;20382;-80
2023/06/20 07:24:16;;;;;;;13.60;9.20;;;25.80;66.10;;;;;;5020448;28;20470;-73
2023/06/20 07:26:42;;;;;;;11.68;9.13;;;26.00;66.10;;;;;;5022288;28;20036;-74
2023/06/20 07:29:07;;;;;;;11.25;9.23;;;26.10;66.60;;;;;;5021209;28;20038;-75
2023/06/20 07:31:33;;;;;;;11.68;9.38;;;26.20;66.00;;;;;;5021748;28;20041;-75
2023/06/20 07:33:58;;;;;;;10.85;8.45;;;26.40;65.50;;;;;;5015499;28;20552;-73
2023/06/20 07:36:24;;;;;;;13.27;8.82;;;26.40;65.50;;;;;;5025746;28;20035;-73
2023/06/20 07:38:49;;;;;;;12.85;8.75;;;26.50;64.80;;;;;;5027435;28;20381;-74
2023/06/20 07:41:15;;;;;;;11.43;8.63;;;26.60;64.70;;;;;;5029695;28;20038;-74
2023/06/20 07:43:43;;;;;;;11.73;8.35;;;26.70;64.50;;;;;;5028741;28;20028;-75
2023/06/20 07:46:08;;;;;;;9.68;7.65;;;26.90;63.80;;;;;;5031095;28;20042;-73
2023/06/20 07:48:34;;;;;;;11.85;8.23;;;27.00;62.80;;;;;;5030489;28;20041;-73
2023/06/20 07:51:00;;;;;;;9.90;8.10;;;27.00;63.10;;;;;;5028005;28;20095;-73
2023/06/20 07:53:26;;;;;;;12.73;8.27;;;27.20;63.10;;;;;;5025293;28;20459;-76
2023/06/20 07:55:55;;;;;;;12.65;8.68;;;27.40;62.50;;;;;;5020321;28;20038;-75
2023/06/20 07:58:21;;;;;;;10.70;9.02;;;27.70;62.10;;;;;;5022332;28;20037;-75
2023/06/20 08:00:47;;;;;;;10.90;7.70;;;27.70;61.90;;;;;;5025617;28;20098;-75
2023/06/20 08:03:13;;;;;;;13.65;8.05;;;27.50;61.80;;;;;;5048643;28;20048;-75
2023/06/20 08:05:38;;;;;;;11.45;8.25;;;27.30;62.10;;;;;;5045051;28;20048;-74
2023/06/20 08:08:04;;;;;;;11.40;9.05;;;27.20;62.70;;;;;;5025678;28;20033;-75
2023/06/20 08:10:30;;;;;;;10.75;8.88;;;27.00;62.40;;;;;;5026769;28;20103;-75
2023/06/20 08:12:56;;;;;;;9.82;6.65;;;27.20;62.50;;;;;;5019871;28;20033;-76
2023/06/20 08:15:22;;;;;;;9.77;7.72;;;27.40;61.60;;;;;;5025799;28;20050;-75
2023/06/20 08:17:48;;;;;;;9.43;7.68;;;27.50;61.80;;;;;;5023352;28;20034;-75
2023/06/20 08:20:14;;;;;;;14.05;8.25;;;27.40;62.40;;;;;;5023490;28;20033;-75
2023/06/20 08:22:41;;;;;;;10.55;6.80;;;27.60;61.80;;;;;;5022253;28;20894;-75
2023/06/20 08:25:07;;;;;;;11.88;7.72;;;27.80;60.70;;;;;;5031611;28;20029;-76
2023/06/20 08:27:33;;;;;;;9.60;7.75;;;27.80;60.50;;;;;;5024068;28;20040;-75
2023/06/20 08:29:58;;;;;;;9.82;7.88;;;27.70;61.50;;;;;;5031354;28;20033;-77
2023/06/20 08:32:24;;;;;;;11.38;8.05;;;27.90;61.10;;;;;;5025411;28;20029;-75
2023/06/20 08:34:50;;;;;;;10.93;7.45;;;28.00;60.50;;;;;;5029036;28;20036;-77
2023/06/20 08:37:22;;;;;;;9.68;7.50;;;28.10;59.90;;;;;;5031972;28;20041;-76
2023/06/20 08:39:48;;;;;;;9.55;6.70;;;28.00;59.10;;;;;;5044062;28;20044;-75
2023/06/20 08:42:14;;;;;;;10.48;6.95;;;28.10;59.60;;;;;;5031173;28;20041;-74
2023/06/20 08:44:40;;;;;;;10.48;6.68;;;28.00;59.30;;;;;;5020492;28;20438;-74
2023/06/20 08:47:06;;;;;;;9.10;6.40;;;27.90;60.00;;;;;;5019619;28;20069;-74
2023/06/20 08:49:32;;;;;;;9.73;6.75;;;28.00;59.80;;;;;;5024011;28;20049;-74
2023/06/20 08:52:02;;;;;;;10.13;6.40;;;28.20;58.80;;;;;;5023509;28;20045;-76
2023/06/20 08:54:36;;;;;;;9.57;6.85;;;28.40;58.80;;;;;;5014017;28;20489;-76
2023/06/20 08:57:02;;;;;;;8.30;5.70;;;28.60;59.20;;;;;;5032797;28;20044;-75
2023/06/20 08:59:28;;;;;;;10.18;5.85;;;28.90;58.00;;;;;;5046984;28;20509;-75
2023/06/20 09:01:54;;;;;;;9.45;5.50;;;29.10;56.00;;;;;;5044051;28;20030;-81
2023/06/20 09:04:20;;;;;;;9.68;5.75;;;29.30;56.70;;;;;;5053762;28;20094;-75
2023/06/20 09:06:50;;;;;;;8.85;5.40;;;29.40;55.80;;;;;;5048416;28;20052;-76
2023/06/20 09:09:17;;;;;;;10.27;6.20;;;29.30;55.60;;;;;;5038229;28;20436;-75
2023/06/20 09:11:56;;;;;;;8.60;6.30;;;29.20;55.30;;;;;;5042499;28;20071;-77
2023/06/20 09:14:26;;;;;;;9.63;6.13;;;29.30;56.40;;;;;;5043631;28;20045;-78
2023/06/20 09:16:53;;;;;;;8.60;5.57;;;29.50;56.90;;;;;;5049165;28;20131;-78
2023/06/20 09:19:19;;;;;;;7.70;5.93;;;29.60;54.90;;;;;;5040379;28;20131;-76
2023/06/20 09:21:44;;;;;;;9.88;6.03;;;29.60;55.20;;;;;;5044061;28;20079;-78
2023/06/20 09:24:10;;;;;;;8.32;5.75;;;29.40;55.90;;;;;;5044711;28;20033;-77
2023/06/20 09:26:36;;;;;;;9.65;6.00;;;29.00;55.90;;;;;;5033910;28;20029;-77
2023/06/20 09:29:10;;;;;;;9.40;5.43;;;28.70;57.70;;;;;;5049323;28;20505;-77
2023/06/20 09:31:47;;;;;;;;;;;28.70;57.40;;;;;;5047001;28;20464;-75
2023/06/20 09:34:14;;;;;;;9.27;5.82;;;28.50;57.90;;;;;;5042633;28;19917;-73
2023/06/20 09:36:41;;;;;;;9.38;5.68;;;28.10;59.60;;;;;;5043836;28;20075;-75
2023/06/20 09:39:17;;;;;;;9.38;5.13;;;28.20;59.70;;;;;;5050867;28;20024;-74
2023/06/20 09:41:53;;;;;;;8.43;5.25;;;28.50;59.20;;;;;;5044666;28;20033;-75
2023/06/20 09:44:20;;;;;;;11.25;5.10;;;28.60;58.30;;;;;;5049259;28;20105;-77
2023/06/20 09:46:46;;;;;;;9.30;5.45;;;29.10;57.00;;;;;;5043745;28;20041;-73
2023/06/20 09:49:13;;;;;;;8.13;5.38;;;29.60;55.50;;;;;;5045562;28;20037;-73
2023/06/20 09:51:48;;;;;;;8.32;5.25;;;29.80;55.30;;;;;;5049183;28;20106;-75
2023/06/20 09:54:27;;;;;;;8.63;5.03;;;29.90;54.50;;;;;;5041280;28;20036;-77
2023/06/20 09:56:59;;;;;;;10.20;4.72;;;29.90;54.30;;;;;;5041050;28;20555;-75
2023/06/20 09:59:26;;;;;;;9.50;5.15;;;29.80;54.90;;;;;;5052613;28;20717;-75
2023/06/20 10:01:54;;;;;;;7.55;4.60;;;29.60;54.30;;;;;;5048133;28;20045;-74
2023/06/20 10:04:21;;;;;;;7.75;4.88;;;29.40;54.80;;;;;;5051515;28;20035;-77
2023/06/20 10:06:48;;;;;;;8.00;5.03;;;29.00;55.20;;;;;;5038214;28;20084;-76
2023/06/20 10:09:15;;;;;;;11.25;4.70;;;29.00;56.30;;;;;;5054099;28;20072;-75
2023/06/20 10:11:41;;;;;;;10.65;5.25;;;29.50;55.90;;;;;;5048826;28;20049;-75
2023/06/20 10:14:09;;;;;;;7.53;4.68;;;29.80;54.60;;;;;;5044478;28;20064;-76
2023/06/20 10:16:35;;;;;;;8.38;4.88;;;30.10;54.10;;;;;;5042407;28;20059;-73
2023/06/20 10:19:17;;;;;;;9.30;4.35;;;30.10;53.50;;;;;;5049289;28;20478;-76
2023/06/20 10:21:59;;;;;;;9.63;5.07;;;30.10;53.50;;;;;;5039724;28;20098;-74
2023/06/20 10:24:27;;;;;;;7.78;5.25;;;29.80;53.10;;;;;;5042956;28;20035;-78
2023/06/20 10:26:54;;;;;;;7.82;4.57;;;29.80;53.30;;;;;;5040597;28;20064;-75
2023/06/20 10:29:21;;;;;;;8.88;5.20;;;30.10;53.50;;;;;;5038159;28;20029;-74
2023/06/20 10:32:03;;;;;;;8.15;5.07;;;30.20;53.20;;;;;;5043558;28;20029;-74
2023/06/20 10:34:38;;;;;;;9.93;4.85;;;30.10;53.40;;;;;;5033233;28;20485;-73
2023/06/20 10:37:34;;;;;;;9.68;5.47;;;30.10;54.00;;;;;;5048677;28;20485;-74
2023/06/20 10:39:59;;;;;;;8.05;5.68;;;30.30;53.60;;;;;;5048533;28;20032;-72
2023/06/20 10:42:40;;;;;;;10.30;4.70;;;30.40;53.30;;;;;;5042655;28;20098;-74
2023/06/20 10:45:22;;;;;;;9.05;5.22;;;30.60;53.10;;;;;;5044232;28;20036;-77
2023/06/20 10:47:49;;;;;;;10.13;5.03;;;30.70;53.00;;;;;;5037389;28;20578;-76
2023/06/20 10:50:15;;;;;;;7.88;4.97;;;30.70;52.50;;;;;;5042593;28;20037;-75
2023/06/20 10:52:41;;;;;;;9.70;5.45;;;30.80;52.80;;;;;;5013416;28;20145;-75
2023/06/20 10:55:22;;;;;;;13.35;5.85;;;30.90;52.30;;;;;;5018347;28;20167;-76
2023/06/20 10:57:49;;;;;;;8.70;5.00;;;31.20;51.70;;;;;;5016661;28;20025;-75
2023/06/20 11:00:19;;;;;;;8.15;4.90;;;31.50;51.50;;;;;;5014889;28;20797;-75
2023/06/20 11:02:55;;;;;;;9.68;5.45;;;31.80;50.50;;;;;;5019186;28;20046;-75
2023/06/20 11:05:27;;;;;;;10.13;5.13;;;31.70;50.40;;;;;;5017823;28;20481;-78
2023/06/20 11:07:56;;;;;;;9.25;5.72;;;31.60;49.60;;;;;;5020646;28;20549;-77
2023/06/20 11:10:34;;;;;;;10.45;5.20;;;31.80;50.00;;;;;;5021460;28;20044;-74
2023/06/20 11:13:03;;;;;;;8.32;4.93;;;31.80;47.70;;;;;;5040903;28;20082;-75
2023/06/20 11:15:33;;;;;;;8.10;4.30;;;31.80;48.40;;;;;;5046866;28;20956;-75
2023/06/20 11:18:04;;;;;;;6.95;4.70;;;31.50;47.80;;;;;;5030181;28;20037;-77
2023/06/20 11:20:30;;;;;;;9.38;5.03;;;31.40;48.10;;;;;;5021615;28;20072;-76
2023/06/20 11:22:57;;;;;;;8.32;4.90;;;31.40;48.20;;;;;;5014663;28;20057;-79
2023/06/20 11:25:30;;;;;;;9.68;5.35;;;31.70;47.50;;;;;;5016754;28;20036;-75
2023/06/20 11:28:13;;;;;;;8.85;4.75;;;31.90;46.60;;;;;;5018712;28;20469;-77
2023/06/20 11:30:43;;;;;;;8.43;5.05;;;32.10;45.70;;;;;;5017964;28;20158;-79
2023/06/20 11:33:11;;;;;;;7.65;4.70;;;32.00;45.40;;;;;;5024596;28;20241;-76
2023/06/20 11:35:56;;;;;;;7.97;4.20;;;32.00;45.40;;;;;;5025316;28;20378;-75
2023/06/20 11:38:24;;;;;;;7.47;4.68;;;31.80;45.60;;;;;;5044659;28;20447;-80
2023/06/20 11:41:04;;;;;;;8.85;4.45;;;31.60;46.00;;;;;;5030331;28;20533;-75
2023/06/20 11:43:40;;;;;;;9.23;4.60;;;31.80;45.40;;;;;;5014754;28;20524;-78
2023/06/20 11:46:07;;;;;;;8.38;4.70;;;31.60;46.50;;;;;;5020517;28;20087;-76
2023/06/20 11:48:33;;;;;;;8.10;4.68;;;31.60;45.90;;;;;;5016039;28;20034;-76
2023/06/20 11:51:03;;;;;;;8.15;4.32;;;31.60;46.30;;;;;;5019745;28;20029;-78
2023/06/20 11:53:38;;;;;;;9.55;4.40;;;31.60;45.90;;;;;;5017749;28;20022;-79
2023/06/20 11:56:08;;;;;;;8.98;4.95;;;31.70;45.70;;;;;;5015124;28;20026;-78
2023/06/20 11:58:45;;;;;;;7.97;4.72;;;31.80;45.20;;;;;;5022017;28;20022;-78
2023/06/20 12:01:20;;;;;;;7.72;4.65;;;32.10;45.50;;;;;;5017150;28;20214;-79
2023/06/20 12:04:01;;;;;;;7.72;4.65;;;32.40;44.70;;;;;;5018169;28;20022;-79
2023/06/20 12:06:30;;;;;;;8.98;4.72;;;32.50;44.90;;;;;;5026005;28;20041;-79
2023/06/20 12:09:04;;;;;;;7.97;4.63;;;32.10;45.30;;;;;;5016935;28;20053;-80
2023/06/20 12:11:30;;;;;;;7.28;4.20;;;32.00;46.00;;;;;;5019693;28;20155;-78
2023/06/20 12:13:56;;;;;;;11.30;5.22;;;31.90;46.10;;;;;;5018712;28;20049;-77
2023/06/20 12:16:23;;;;;;;9.23;4.97;;;31.50;45.70;;;;;;5011622;28;20531;-78
2023/06/20 12:18:53;;;;;;;9.07;5.07;;;31.40;45.90;;;;;;5011470;28;20026;-78
2023/06/20 12:21:19;;;;;;;8.77;5.10;;;31.20;46.20;;;;;;5008616;28;20509;-80
2023/06/20 12:23:46;;;;;;;12.20;5.22;;;31.10;46.50;;;;;;5016216;28;20030;-76
2023/06/20 12:26:13;;;;;;;11.10;5.28;;;31.20;46.40;;;;;;5020414;28;20073;-78
2023/06/20 12:28:41;;;;;;;13.90;5.55;;;31.40;46.30;;;;;;5017760;28;20061;-77
2023/06/20 12:31:07;;;;;;;11.07;4.93;;;31.40;46.40;;;;;;5011614;28;20026;-78
2023/06/20 12:33:32;;;;;;;6.53;4.60;;;31.50;47.00;;;;;;5015839;28;20387;-76
2023/06/20 12:35:58;;;;;;;11.88;5.20;;;31.30;46.80;;;;;;5014399;28;20033;-76
2023/06/20 12:38:25;;;;;;;9.38;4.80;;;31.00;46.90;;;;;;5021733;28;20131;-76
2023/06/20 12:40:52;;;;;;;10.80;4.68;;;30.60;47.70;;;;;;5021026;28;20280;-80